Time;durP1;ratioP1;P1;durP2;ratioP2;P2;SDS_P1;SDS_P2;PMS_P1;PMS_P2;Temp;Humidity;BMP_temperature;BMP_pressure;BME280_temperature;BME280_humidity;BME280_pressure;Samples;Min_cycle;Max_cycle;Signal;HPM_P1;HPM_P2
2023/06/26 00:05:04;;;;;;;6.65;5.60;;;19.40;90.50;;;18.28;76.68;99996.13;12436421;23;97318;-85
2023/06/26 00:10:08;;;;;;;7.80;6.20;;;19.40;90.70;;;18.16;76.98;99996.03;12459536;23;96381;-87
2023/06/26 00:15:13;;;;;;;8.50;5.93;;;19.20;91.00;;;18.01;77.97;99995.59;12485038;23;96500;-87
2023/06/26 00:20:18;;;;;;;7.40;6.38;;;19.10;91.40;;;17.99;78.12;99993.09;12460590;23;96453;-87
2023/06/26 00:25:22;;;;;;;7.75;5.97;;;19.00;91.60;;;17.96;77.88;99992.75;12485126;23;96387;-87
2023/06/26 00:30:27;;;;;;;7.78;5.53;;;19.00;91.70;;;17.92;78.33;99995.84;12458818;23;96378;-87
2023/06/26 00:35:30;;;;;;;7.10;5.95;;;19.00;91.70;;;17.88;78.33;99997.34;12458804;23;96526;-86
2023/06/26 00:40:34;;;;;;;7.90;6.18;;;18.90;91.80;;;17.87;78.24;99998.41;12459645;23;96459;-86
2023/06/26 00:45:38;;;;;;;6.22;5.18;;;18.90;91.80;;;17.80;77.93;100000.31;12484968;23;96389;-87
2023/06/26 00:50:46;;;;;;;8.27;5.85;;;18.80;91.80;;;17.75;77.82;99999.31;12484270;23;96381;-87
2023/06/26 00:55:49;;;;;;;7.32;5.25;;;18.80;91.90;;;17.67;77.86;99992.31;12484652;23;96414;-87
2023/06/26 01:00:53;;;;;;;6.68;5.70;;;18.80;91.90;;;17.65;79.14;99981.00;12453681;23;96987;-87
2023/06/26 01:06:00;;;;;;;7.65;5.20;;;18.70;92.10;;;17.58;79.00;99982.91;12481934;23;96571;-87
2023/06/26 01:11:03;;;;;;;7.55;5.88;;;18.70;92.20;;;17.50;79.54;99980.47;12461456;23;96546;-87
2023/06/26 01:16:08;;;;;;;7.53;6.15;;;18.60;92.50;;;17.39;80.15;99982.84;12459029;23;96430;-87
2023/06/26 01:21:13;;;;;;;7.90;5.78;;;18.50;92.70;;;17.29;80.65;99979.81;12459636;23;96850;-87
2023/06/26 01:26:22;;;;;;;8.18;6.25;;;18.30;93.00;;;17.21;81.35;99972.00;12457536;23;96425;-87
2023/06/26 01:31:28;;;;;;;9.13;5.95;;;18.30;93.30;;;17.18;81.88;99971.63;12432337;23;96774;-86
2023/06/26 01:36:32;;;;;;;8.43;5.82;;;18.20;93.50;;;17.16;81.95;99963.78;12459459;23;96513;-87
2023/06/26 01:41:36;;;;;;;7.57;5.82;;;18.20;93.90;;;17.17;81.88;99965.44;12458120;23;96456;-87
2023/06/26 01:46:50;;;;;;;6.95;5.78;;;18.20;93.70;;;17.19;82.23;99968.72;12458668;23;96741;-87
2023/06/26 01:52:08;;;;;;;7.82;6.35;;;18.30;93.90;;;17.15;82.53;99970.16;12484144;23;96592;-86
2023/06/26 01:57:12;;;;;;;8.00;6.28;;;18.30;94.00;;;17.12;82.29;99965.25;12459582;23;97004;-87
2023/06/26 02:02:16;;;;;;;8.98;5.78;;;18.20;94.20;;;17.03;82.54;99969.22;12461584;23;96571;-86
2023/06/26 02:07:19;;;;;;;6.68;5.07;;;18.20;94.30;;;16.87;82.30;99962.50;12462423;23;96937;-87
2023/06/26 02:12:24;;;;;;;6.30;5.50;;;18.00;94.40;;;16.73;83.38;99972.50;12461743;23;96569;-90
2023/06/26 02:17:28;;;;;;;6.28;5.60;;;17.80;94.70;;;16.65;84.06;99979.91;12459057;23;97211;-90
2023/06/26 02:22:32;;;;;;;7.72;5.80;;;17.70;94.90;;;16.58;84.42;99979.94;12461379;23;97151;-89
2023/06/26 02:27:35;;;;;;;7.40;5.50;;;17.70;95.20;;;16.50;85.41;99974.81;12460450;23;96810;-90
2023/06/26 02:32:37;;;;;;;9.27;7.30;;;17.60;95.50;;;16.49;86.68;99982.03;12461606;23;96385;-90
2023/06/26 02:37:40;;;;;;;7.60;6.30;;;17.60;95.90;;;16.47;88.07;99985.94;12485893;23;96647;-88
2023/06/26 02:42:42;;;;;;;8.23;6.53;;;17.50;96.30;;;16.41;88.95;99987.63;12461548;23;96512;-90
2023/06/26 02:47:44;;;;;;;7.63;6.43;;;17.50;96.80;;;16.46;89.33;99990.50;12458215;23;97061;-90
2023/06/26 02:52:50;;;;;;;6.90;6.20;;;17.50;97.10;;;16.45;88.85;99990.72;12436515;23;96901;-90
2023/06/26 02:57:52;;;;;;;7.28;6.22;;;17.60;97.20;;;16.41;88.64;99997.53;12460190;23;96469;-90
2023/06/26 03:02:55;;;;;;;9.20;6.80;;;17.50;97.30;;;16.40;88.88;99996.72;12460842;23;96788;-89
2023/06/26 03:07:57;;;;;;;12.00;8.02;;;17.50;97.70;;;16.42;88.54;100000.00;12483168;23;98165;-90
2023/06/26 03:13:00;;;;;;;9.13;6.70;;;17.50;97.60;;;16.43;88.95;100003.50;12486139;23;96682;-90
2023/06/26 03:18:02;;;;;;;9.40;6.32;;;17.60;97.80;;;16.41;89.20;100016.31;12459107;23;96568;-90
2023/06/26 03:23:05;;;;;;;10.27;6.43;;;17.60;98.00;;;16.35;90.24;100017.13;12435896;23;96690;-90
2023/06/26 03:28:08;;;;;;;11.40;6.90;;;17.50;98.40;;;16.21;91.58;100016.34;12485327;23;97062;-89
2023/06/26 03:33:12;;;;;;;7.38;5.68;;;17.40;99.00;;;16.17;91.92;100018.59;12459112;23;96793;-90
2023/06/26 03:38:15;;;;;;;6.88;6.07;;;17.30;99.40;;;16.18;92.98;100014.88;12459567;23;96845;-90
2023/06/26 03:43:19;;;;;;;8.65;6.38;;;17.30;99.90;;;16.18;93.05;100006.03;12461765;23;96808;-89
2023/06/26 03:48:23;;;;;;;7.47;6.35;;;17.30;99.90;;;16.18;93.94;100006.84;12483371;23;96489;-91
2023/06/26 03:53:26;;;;;;;10.90;6.93;;;17.30;99.90;;;16.23;95.06;100004.38;12464033;23;96753;-91
2023/06/26 03:58:30;;;;;;;9.23;6.03;;;17.30;99.90;;;16.31;95.86;100001.47;12460196;23;96407;-92
2023/06/26 04:03:34;;;;;;;8.10;6.45;;;17.40;99.90;;;16.45;95.87;100006.81;12460319;23;97077;-90
2023/06/26 04:08:38;;;;;;;7.90;6.65;;;17.50;99.90;;;16.58;94.78;100012.13;12460553;23;96486;-91
2023/06/26 04:13:41;;;;;;;7.28;6.00;;;17.60;99.90;;;16.72;93.75;100013.75;12460441;23;96628;-89
2023/06/26 04:18:45;;;;;;;8.40;6.43;;;17.70;99.90;;;16.81;91.03;100019.72;12438614;23;96547;-92
2023/06/26 04:23:52;;;;;;;7.30;6.43;;;17.80;99.90;;;16.95;89.38;100013.25;12441445;23;96616;-92
2023/06/26 04:28:57;;;;;;;9.73;6.60;;;18.00;99.90;;;16.99;89.11;100005.59;12465356;23;96480;-91
2023/06/26 04:34:01;;;;;;;8.15;6.18;;;18.00;99.90;;;17.05;88.88;100005.56;12497652;23;97047;-91
2023/06/26 04:39:05;;;;;;;8.35;6.45;;;18.20;99.90;;;17.31;88.86;100007.25;12446076;23;97030;-92
2023/06/26 04:44:09;;;;;;;9.65;5.88;;;18.40;99.90;;;17.61;88.23;100012.00;12438901;23;96253;-91
2023/06/26 04:49:13;;;;;;;7.47;5.40;;;18.70;99.90;;;17.88;88.16;100008.13;12467950;23;96792;-91
2023/06/26 04:54:17;;;;;;;7.47;5.82;;;19.00;99.90;;;18.14;88.08;100009.72;12462623;23;96434;-92
2023/06/26 04:59:20;;;;;;;7.78;5.30;;;19.20;99.90;;;18.47;87.65;100022.00;12462887;23;96401;-95
2023/06/26 05:04:24;;;;;;;11.20;5.63;;;19.50;99.90;;;18.75;85.92;100020.69;12462029;23;96814;-94
2023/06/26 05:09:28;;;;;;;6.03;4.53;;;19.80;99.90;;;19.02;85.51;100015.81;12460244;23;96530;-95
2023/06/26 05:14:31;;;;;;;11.23;5.45;;;20.00;99.90;;;19.32;84.74;100018.50;12475872;23;96543;-96
2023/06/26 05:19:35;;;;;;;5.47;4.47;;;20.30;99.90;;;19.54;83.76;100011.50;12464876;23;96756;-94
2023/06/26 05:24:40;;;;;;;5.03;4.03;;;20.50;99.90;;;19.73;82.59;100005.03;12463480;23;97209;-95
2023/06/26 05:29:44;;;;;;;6.43;3.88;;;20.80;99.80;;;19.91;80.12;100005.97;12438859;23;96811;-94
2023/06/26 05:34:49;;;;;;;6.53;5.28;;;20.90;99.10;;;20.01;81.14;100020.53;12462593;23;96624;-93
2023/06/26 05:39:53;;;;;;;9.15;5.50;;;21.00;99.30;;;20.16;81.38;100017.38;12463055;23;96555;-95
2023/06/26 05:44:56;;;;;;;8.15;5.65;;;21.20;99.10;;;20.26;79.99;100016.75;12464932;23;96819;-94
2023/06/26 05:50:01;;;;;;;7.22;5.63;;;21.30;98.70;;;20.43;78.49;100020.38;12463807;23;96450;-92
2023/06/26 05:55:06;;;;;;;9.07;6.03;;;21.40;98.20;;;20.56;76.24;100020.16;12441138;23;96436;-94
2023/06/26 06:00:10;;;;;;;7.00;5.40;;;21.60;97.60;;;20.66;76.28;100014.16;12463646;23;96589;-94
2023/06/26 06:05:14;;;;;;;6.97;5.80;;;21.70;97.70;;;20.79;77.31;100003.09;12472402;23;96458;-92
2023/06/26 06:10:18;;;;;;;7.18;6.25;;;21.90;97.70;;;21.05;77.41;100001.72;12487620;23;96323;-93
2023/06/26 06:15:21;;;;;;;7.07;4.80;;;22.10;97.50;;;21.30;76.01;100005.97;12464535;23;96453;-93
2023/06/26 06:20:25;;;;;;;7.43;5.43;;;22.30;97.20;;;21.50;74.33;100006.34;12463164;23;96657;-93
2023/06/26 06:25:29;;;;;;;8.20;5.68;;;22.50;96.60;;;21.70;72.59;100005.03;12462029;23;96411;-92
2023/06/26 06:30:36;;;;;;;14.05;6.20;;;22.70;96.00;;;21.90;71.49;100002.66;12460511;23;96696;-91
2023/06/26 06:35:48;;;;;;;12.13;6.10;;;22.90;95.60;;;22.10;70.13;100008.41;12462934;23;96623;-91
2023/06/26 06:40:51;;;;;;;7.40;5.22;;;23.20;95.00;;;22.24;69.43;99987.22;12485781;23;96776;-91
2023/06/26 06:45:55;;;;;;;7.03;5.55;;;23.40;94.50;;;22.59;67.44;100005.81;12460866;23;96440;-91
2023/06/26 06:50:59;;;;;;;7.80;5.63;;;23.70;93.70;;;22.85;64.01;100000.69;12438263;23;97571;-90
2023/06/26 06:56:03;;;;;;;9.05;5.20;;;23.90;92.40;;;23.08;62.75;99999.63;12461065;23;96646;-89
2023/06/26 07:01:06;;;;;;;7.72;4.57;;;24.20;91.70;;;23.37;62.18;100005.63;12458193;23;96992;-91
2023/06/26 07:06:10;;;;;;;7.15;5.03;;;24.50;91.50;;;23.59;59.55;100003.66;12461988;23;96485;-90
2023/06/26 07:11:13;;;;;;;8.32;7.00;;;24.70;90.20;;;23.73;58.80;99991.34;12438178;23;96562;-91
2023/06/26 07:16:18;;;;;;;7.20;5.05;;;24.90;88.70;;;23.84;57.10;99996.84;12438076;23;96360;-89
2023/06/26 07:21:22;;;;;;;7.53;5.75;;;25.00;87.00;;;23.95;57.47;99985.81;12482675;23;96417;-89
2023/06/26 07:26:28;;;;;;;6.78;5.72;;;25.10;86.80;;;24.09;56.72;99982.63;12486843;23;96352;-88
2023/06/26 07:31:47;;;;;;;13.60;5.68;;;25.20;85.70;;;24.17;56.41;99991.09;12463000;23;96636;-88
2023/06/26 07:36:52;;;;;;;7.93;5.05;;;25.30;85.10;;;24.34;55.05;99990.94;12459897;23;96888;-87
2023/06/26 07:41:59;;;;;;;6.53;5.28;;;25.40;84.40;;;24.44;54.91;99995.63;12458050;23;96874;-88
2023/06/26 07:47:03;;;;;;;6.68;5.20;;;25.50;83.20;;;24.47;55.11;99981.50;12458717;23;96805;-88
2023/06/26 07:52:10;;;;;;;6.63;4.82;;;25.50;83.00;;;24.59;54.47;99984.84;12461253;23;96774;-89
2023/06/26 07:57:13;;;;;;;5.65;4.80;;;25.70;82.20;;;24.61;53.90;99979.13;12487868;23;96527;-88
2023/06/26 08:02:17;;;;;;;8.15;5.30;;;25.70;81.70;;;24.69;53.83;99982.13;12459213;23;96743;-87
2023/06/26 08:07:21;;;;;;;6.38;4.97;;;25.80;81.00;;;24.91;53.80;99994.72;12459439;23;97190;-88
2023/06/26 08:12:25;;;;;;;7.35;5.72;;;25.90;81.40;;;25.15;53.76;99984.22;12482422;23;96501;-89
2023/06/26 08:17:28;;;;;;;6.95;5.28;;;26.10;81.40;;;25.38;53.12;99993.75;12459940;23;96984;-89
2023/06/26 08:22:33;;;;;;;6.57;5.15;;;26.40;80.70;;;25.55;53.47;99986.97;12485404;23;96985;-91
2023/06/26 08:27:36;;;;;;;7.13;4.78;;;26.60;80.30;;;25.71;51.59;99995.13;12431219;23;96831;-90
2023/06/26 08:32:40;;;;;;;8.30;5.55;;;26.80;79.10;;;25.82;51.72;99981.28;12483703;23;96514;-89
2023/06/26 08:37:44;;;;;;;5.93;5.28;;;26.90;78.90;;;25.95;51.00;99988.06;12457802;23;96684;-89
2023/06/26 08:42:52;;;;;;;6.90;5.50;;;27.10;77.90;;;25.92;49.63;99987.81;12481636;23;96359;-91
2023/06/26 08:48:00;;;;;;;8.63;5.18;;;27.10;76.60;;;25.83;49.93;99985.63;12458929;23;97155;-92
2023/06/26 08:53:11;;;;;;;10.20;6.10;;;27.00;76.00;;;25.89;50.41;99989.16;12456393;23;96586;-92
2023/06/26 08:58:15;;;;;;;7.03;4.78;;;27.00;76.50;;;26.11;50.39;99980.69;12477969;23;96948;-91
2023/06/26 09:03:20;;;;;;;5.18;4.63;;;27.20;76.60;;;26.27;49.31;99971.41;12457825;23;96468;-91
2023/06/26 09:08:24;;;;;;;8.23;4.80;;;27.40;75.90;;;26.19;49.08;99977.38;12460220;23;97542;-90
2023/06/26 09:13:31;;;;;;;5.20;4.57;;;27.40;74.70;;;26.13;49.28;99981.22;12459741;23;96616;-91
2023/06/26 09:18:36;;;;;;;7.28;4.43;;;27.30;74.50;;;26.00;48.83;99976.34;12459075;23;96974;-90
2023/06/26 09:23:41;;;;;;;5.05;4.55;;;27.20;74.20;;;26.01;48.52;99978.78;12484196;23;96726;-89
2023/06/26 09:28:45;;;;;;;6.03;4.78;;;27.20;74.10;;;26.00;48.24;99973.63;12459388;23;96490;-91
2023/06/26 09:33:59;;;;;;;6.05;4.70;;;27.10;73.10;;;26.06;48.39;99969.81;12483333;23;96505;-91
2023/06/26 09:39:08;;;;;;;6.60;5.30;;;27.20;73.20;;;26.19;48.41;99955.59;12463439;23;97161;-93
2023/06/26 09:44:14;;;;;;;6.33;4.57;;;27.40;72.70;;;26.42;47.55;99965.09;12460832;23;96316;-87
2023/06/26 09:49:18;;;;;;;5.68;4.10;;;27.50;72.40;;;26.61;45.91;99966.09;12456711;23;96744;-86
2023/06/26 09:54:23;;;;;;;7.85;4.57;;;27.80;71.00;;;26.75;46.79;99955.41;12453974;23;96843;-86
2023/06/26 09:59:27;;;;;;;6.25;4.63;;;27.90;71.50;;;27.17;46.75;99954.09;12457772;23;96519;-85
2023/06/26 10:04:30;;;;;;;6.70;5.18;;;28.20;71.30;;;27.38;45.33;99952.84;12482814;23;96804;-87
2023/06/26 10:09:40;;;;;;;4.30;3.90;;;28.50;70.20;;;27.68;44.49;99948.22;12456988;23;96501;-85
2023/06/26 10:14:44;;;;;;;7.63;4.15;;;28.80;69.10;;;27.46;43.67;99946.75;12457322;23;96622;-86
2023/06/26 10:19:53;;;;;;;4.97;4.20;;;28.60;68.20;;;27.08;46.25;99953.06;12457649;23;96904;-86
2023/06/26 10:25:00;;;;;;;5.05;4.00;;;28.10;69.60;;;26.73;46.90;99945.88;12461670;23;96479;-86
2023/06/26 10:30:14;;;;;;;4.60;4.07;;;27.80;70.50;;;26.43;47.35;99942.19;12460912;23;96585;-86
2023/06/26 10:35:18;;;;;;;5.32;4.40;;;27.50;70.90;;;26.23;47.63;99940.34;12459865;23;96802;-86
2023/06/26 10:40:26;;;;;;;7.45;4.05;;;27.30;71.10;;;26.23;48.06;99934.91;12461297;23;96558;-87
2023/06/26 10:45:29;;;;;;;5.10;3.90;;;27.20;71.60;;;26.56;47.78;99944.31;12456924;23;96977;-86
2023/06/26 10:50:37;;;;;;;5.88;3.60;;;27.60;71.40;;;26.95;47.52;99940.84;12483576;23;96820;-89
2023/06/26 10:55:56;;;;;;;5.13;4.33;;;28.00;70.70;;;27.31;44.97;99941.44;12436360;23;96800;-91
2023/06/26 11:01:25;;;;;;;9.68;4.50;;;28.40;69.70;;;27.54;45.26;99936.34;12464157;23;96653;-90
2023/06/26 11:06:29;;;;;;;4.70;3.95;;;28.60;68.50;;;27.72;42.57;99928.28;12459998;23;96457;-90
2023/06/26 11:11:57;;;;;;;4.65;4.10;;;28.90;66.70;;;28.05;42.97;99920.28;12486998;23;96529;-90
2023/06/26 11:17:03;;;;;;;4.93;4.18;;;29.30;66.30;;;28.30;41.22;99910.16;12484703;23;96345;-91
2023/06/26 11:22:06;;;;;;;5.97;4.20;;;29.50;65.00;;;28.42;43.48;99908.66;12462066;23;96450;-91
2023/06/26 11:27:10;;;;;;;4.40;4.00;;;29.70;66.10;;;28.52;43.54;99907.72;12459946;23;96379;-90
2023/06/26 11:32:14;;;;;;;4.25;3.85;;;29.60;66.20;;;28.67;43.11;99910.25;12459137;23;97609;-92
2023/06/26 11:37:18;;;;;;;5.35;4.20;;;29.80;66.30;;;28.87;42.47;99911.88;12457122;23;96605;-91
2023/06/26 11:42:21;;;;;;;5.43;4.13;;;30.00;65.20;;;28.70;42.32;99901.47;12460918;23;96465;-92
2023/06/26 11:47:25;;;;;;;4.60;3.80;;;29.90;64.80;;;28.85;42.48;99905.91;12436037;23;96471;-92
2023/06/26 11:52:29;;;;;;;5.70;3.85;;;30.10;65.00;;;28.83;40.82;99904.56;12461289;23;96719;-90
2023/06/26 11:57:33;;;;;;;7.10;3.95;;;30.10;63.50;;;28.48;41.35;99901.22;12484666;23;96674;-90
2023/06/26 12:02:37;;;;;;;4.55;3.58;;;29.80;63.50;;;28.29;40.61;99901.16;12460331;23;96968;-90
2023/06/26 12:07:43;;;;;;;4.80;4.13;;;29.60;62.90;;;27.88;41.34;99904.34;12437271;23;96517;-90
2023/06/26 12:12:47;;;;;;;4.95;4.45;;;29.10;62.70;;;27.58;43.09;99905.44;12461157;23;96524;-89
2023/06/26 12:17:50;;;;;;;6.13;3.83;;;28.70;64.30;;;27.65;43.46;99900.50;12459978;23;96440;-86
2023/06/26 12:22:54;;;;;;;3.72;3.40;;;28.80;64.90;;;28.25;42.93;99897.41;12459012;23;97117;-86
2023/06/26 12:27:57;;;;;;;4.80;3.70;;;29.70;64.20;;;28.94;40.98;99893.22;12459393;23;96464;-86
2023/06/26 12:33:01;;;;;;;4.35;3.40;;;30.90;62.60;;;29.64;39.31;99895.09;12457391;23;96828;-88
2023/06/26 12:38:10;;;;;;;5.75;3.30;;;31.80;60.50;;;30.43;39.44;99889.44;12485018;23;96696;-89
2023/06/26 12:43:23;;;;;;;4.95;3.78;;;32.80;60.00;;;30.87;38.28;99893.41;12437635;23;97384;-87
2023/06/26 12:48:45;;;;;;;4.22;3.38;;;33.10;59.20;;;31.20;38.03;99890.44;12465084;23;96473;-88
2023/06/26 12:53:49;;;;;;;4.97;3.60;;;33.00;58.60;;;31.56;36.47;99873.88;12461209;23;97109;-87
2023/06/26 12:58:53;;;;;;;5.00;3.75;;;32.90;57.70;;;31.61;36.02;99880.03;12458709;23;96467;-86
2023/06/26 13:03:56;;;;;;;3.88;3.47;;;32.80;57.20;;;31.69;34.64;99882.00;12486009;23;96437;-86
2023/06/26 13:09:03;;;;;;;5.80;3.88;;;32.90;56.00;;;31.58;36.25;99879.84;12459443;23;96632;-87
2023/06/26 13:14:07;;;;;;;4.03;3.63;;;32.90;56.70;;;31.32;36.22;99871.47;12484792;23;96528;-87
2023/06/26 13:19:14;;;;;;;3.93;3.60;;;32.90;56.60;;;30.98;37.41;99881.06;12484179;23;96895;-85
2023/06/26 13:24:18;;;;;;;4.18;3.58;;;32.50;57.40;;;31.12;36.86;99872.75;12459685;23;96493;-86
2023/06/26 13:29:22;;;;;;;4.00;3.17;;;32.50;57.50;;;31.41;36.51;99875.06;12484279;23;96372;-86
2023/06/26 13:34:28;;;;;;;4.05;3.42;;;32.60;57.60;;;31.83;35.99;99868.19;12456990;23;96558;-87
2023/06/26 13:39:31;;;;;;;4.45;3.50;;;32.70;57.20;;;32.32;35.58;99862.66;12457565;23;96568;-86
2023/06/26 13:44:35;;;;;;;7.88;3.65;;;33.00;57.30;;;32.42;35.60;99856.91;12483633;23;96446;-86
2023/06/26 13:49:54;;;;;;;4.18;3.60;;;33.00;57.70;;;32.19;35.16;99861.69;12462742;23;97143;-86
2023/06/26 13:54:59;;;;;;;4.32;3.70;;;32.70;56.50;;;31.38;35.44;99860.06;12485413;23;96428;-87
2023/06/26 14:00:03;;;;;;;5.55;3.70;;;32.00;56.60;;;31.00;36.60;99856.84;12486756;23;96869;-87
2023/06/26 14:05:08;;;;;;;4.20;3.80;;;31.50;57.50;;;30.88;35.68;99851.94;12460127;23;96507;-86
2023/06/26 14:10:12;;;;;;;6.50;3.72;;;31.50;57.00;;;30.58;35.68;99849.88;12482506;23;96426;-87
2023/06/26 14:15:15;;;;;;;4.60;3.60;;;31.30;56.60;;;30.08;36.19;99847.09;12484664;23;96857;-86
2023/06/26 14:20:22;;;;;;;4.00;3.60;;;30.90;56.80;;;29.53;37.43;99845.19;12457583;23;97780;-86
2023/06/26 14:25:27;;;;;;;4.53;3.15;;;30.40;57.40;;;29.49;37.73;99849.59;12485875;23;96442;-86
2023/06/26 14:30:31;;;;;;;5.97;3.20;;;30.30;57.60;;;29.51;38.84;99849.31;12458682;23;96539;-85
2023/06/26 14:35:35;;;;;;;3.53;3.22;;;30.40;58.10;;;29.31;39.05;99855.94;12457457;23;96851;-87
2023/06/26 14:40:39;;;;;;;4.10;3.20;;;30.20;58.40;;;29.44;39.16;99849.69;12482195;23;97663;-87
2023/06/26 14:45:43;;;;;;;4.18;3.45;;;30.40;58.50;;;29.80;38.02;99846.28;12460897;23;96416;-87
2023/06/26 14:50:47;;;;;;;3.63;3.13;;;31.00;57.80;;;30.13;36.74;99843.50;12486170;23;96468;-86
2023/06/26 14:55:51;;;;;;;5.65;3.00;;;31.60;56.70;;;30.41;36.78;99838.75;12483125;23;96573;-86
2023/06/26 15:00:54;;;;;;;4.45;3.20;;;31.90;56.70;;;30.73;36.56;99835.84;12459515;23;96798;-85
2023/06/26 15:05:58;;;;;;;4.22;2.78;;;32.20;55.90;;;31.21;36.43;99826.19;12488853;23;96456;-86
2023/06/26 15:11:05;;;;;;;2.90;2.55;;;32.60;55.90;;;31.42;34.55;99825.34;12480798;23;96485;-85
2023/06/26 15:16:09;;;;;;;4.10;3.28;;;32.90;54.60;;;31.38;34.16;99812.56;12469440;23;96726;-84
2023/06/26 15:21:13;;;;;;;4.95;2.85;;;32.90;54.10;;;31.57;36.06;99813.13;12459890;23;96915;-87
2023/06/26 15:26:16;;;;;;;3.95;3.08;;;32.90;54.80;;;31.97;34.02;99807.66;12486320;23;96451;-85
2023/06/26 15:31:20;;;;;;;4.47;2.72;;;33.40;54.00;;;32.17;34.31;99798.78;12459762;23;96553;-87
2023/06/26 15:36:24;;;;;;;4.35;3.10;;;33.70;53.90;;;32.29;33.21;99800.09;12458397;23;98139;-87
2023/06/26 15:41:28;;;;;;;3.70;2.90;;;34.10;53.00;;;32.38;32.60;99801.72;12460846;23;96481;-86
2023/06/26 15:46:31;;;;;;;3.83;2.90;;;34.40;51.80;;;32.68;33.37;99797.19;12455990;23;96876;-87
2023/06/26 15:51:37;;;;;;;4.07;2.65;;;34.60;51.80;;;32.99;31.85;99794.28;12485124;23;96772;-87
2023/06/26 15:56:41;;;;;;;3.53;2.75;;;34.90;50.80;;;33.12;31.84;99786.97;12484452;23;96994;-86
2023/06/26 16:01:45;;;;;;;3.83;3.30;;;35.00;50.50;;;33.26;31.09;99789.50;12461909;23;96430;-85
2023/06/26 16:06:49;;;;;;;3.63;2.67;;;35.00;50.30;;;33.24;30.82;99787.09;12459639;23;97198;-87
2023/06/26 16:11:53;;;;;;;3.28;2.88;;;34.90;50.10;;;33.09;30.62;99781.31;12460539;23;96481;-86
2023/06/26 16:16:56;;;;;;;3.63;2.92;;;34.50;50.20;;;32.91;31.94;99786.84;12482666;23;97018;-85
2023/06/26 16:22:01;;;;;;;3.90;2.90;;;34.10;51.40;;;32.63;30.26;99788.34;12480108;23;96827;-88
2023/06/26 16:27:05;;;;;;;3.80;3.28;;;33.70;50.30;;;32.23;32.04;99781.00;12457537;23;97531;-89
2023/06/26 16:32:09;;;;;;;4.50;2.78;;;33.10;51.40;;;31.71;32.77;99785.56;12478176;23;97740;-91
2023/06/26 16:37:13;;;;;;;4.15;2.97;;;32.50;52.10;;;31.37;33.16;99786.25;12450235;23;97102;-88
2023/06/26 16:42:19;;;;;;;4.22;3.00;;;32.30;52.00;;;30.72;33.46;99787.63;12450737;23;97061;-90
2023/06/26 16:47:22;;;;;;;3.40;3.10;;;31.60;52.20;;;30.18;34.87;99781.16;12435919;23;96723;-89
2023/06/26 16:52:26;;;;;;;3.50;3.00;;;31.10;53.30;;;30.10;34.16;99785.44;12459209;23;96536;-90
2023/06/26 16:57:30;;;;;;;4.28;3.17;;;31.00;53.40;;;29.87;34.57;99775.50;12483074;23;96825;-89
2023/06/26 17:02:33;;;;;;;4.07;3.40;;;30.90;53.50;;;29.78;35.42;99777.34;12434328;23;96950;-89
2023/06/26 17:07:38;;;;;;;4.68;3.00;;;30.70;53.70;;;29.81;36.12;99777.53;12456298;23;96770;-90
2023/06/26 17:12:43;;;;;;;4.50;3.00;;;30.70;54.50;;;29.69;36.38;99779.16;12457700;23;96710;-90
2023/06/26 17:17:49;;;;;;;3.70;3.25;;;30.60;54.60;;;29.49;36.01;99772.94;12458128;23;96878;-89
2023/06/26 17:22:53;;;;;;;4.25;3.13;;;30.40;54.70;;;29.29;36.58;99784.28;12480223;23;97188;-89
2023/06/26 17:27:56;;;;;;;3.17;2.75;;;30.20;54.90;;;29.01;37.16;99784.22;12453356;23;96679;-90
2023/06/26 17:33:02;;;;;;;3.25;2.90;;;29.90;55.10;;;28.73;38.75;99774.31;12430909;23;96949;-90
2023/06/26 17:38:07;;;;;;;3.53;3.10;;;29.60;56.20;;;28.39;40.71;99782.75;12460872;23;96487;-89
2023/06/26 17:43:12;;;;;;;3.80;3.08;;;29.30;57.60;;;27.94;42.24;99774.84;12459650;23;96921;-90
2023/06/26 17:48:16;;;;;;;5.28;3.55;;;28.80;59.00;;;27.60;43.43;99782.38;12460270;23;96522;-89
2023/06/26 17:53:20;;;;;;;6.05;3.30;;;28.50;60.20;;;27.28;44.52;99786.50;12483324;23;97096;-89
2023/06/26 17:58:24;;;;;;;7.65;3.53;;;28.10;61.20;;;27.03;45.90;99784.81;12460784;23;96484;-89
2023/06/26 18:03:27;;;;;;;5.22;3.33;;;27.90;62.40;;;26.78;46.75;99783.13;12483689;23;96954;-89
2023/06/26 18:08:31;;;;;;;5.55;3.38;;;27.60;63.30;;;26.52;47.87;99789.88;12463321;23;96480;-89
2023/06/26 18:13:35;;;;;;;4.47;3.58;;;27.40;64.20;;;26.24;48.53;99788.66;12465663;23;96400;-89
2023/06/26 18:18:40;;;;;;;5.53;3.58;;;27.20;65.10;;;25.94;49.12;99800.50;12437767;23;97319;-88
2023/06/26 18:23:44;;;;;;;4.95;3.70;;;26.90;65.90;;;25.56;50.20;99800.06;12484669;23;96447;-90
2023/06/26 18:28:49;;;;;;;7.50;3.65;;;26.50;66.70;;;25.10;51.31;99792.00;12438285;23;96797;-89
2023/06/26 18:33:53;;;;;;;8.52;3.88;;;26.10;67.50;;;24.77;51.95;99810.47;12459910;23;96680;-86
2023/06/26 18:38:57;;;;;;;4.65;3.50;;;25.70;68.20;;;24.46;52.31;99820.44;12460551;23;96768;-88
2023/06/26 18:44:01;;;;;;;6.15;3.72;;;25.40;68.60;;;24.18;52.98;99823.59;12457632;23;96994;-87
2023/06/26 18:49:05;;;;;;;7.40;3.90;;;25.10;69.10;;;23.92;53.06;99825.38;12460226;23;96372;-87
2023/06/26 18:54:08;;;;;;;6.47;4.15;;;24.80;69.30;;;23.64;52.68;99818.50;12460988;23;97138;-87
2023/06/26 18:59:12;;;;;;;6.07;3.80;;;24.60;69.30;;;23.53;52.23;99839.28;12460499;23;96373;-89
2023/06/26 19:04:16;;;;;;;4.25;3.55;;;24.40;68.90;;;23.38;52.00;99847.28;12436833;23;96568;-88
2023/06/26 19:09:20;;;;;;;3.60;3.05;;;24.20;68.70;;;23.19;51.94;99845.00;12484535;23;96474;-90
2023/06/26 19:14:24;;;;;;;4.65;3.17;;;24.10;68.50;;;23.08;51.74;99845.16;12459347;23;96867;-88
2023/06/26 19:19:27;;;;;;;5.65;3.55;;;24.00;68.50;;;22.99;51.58;99844.84;12459073;23;96737;-88
2023/06/26 19:24:31;;;;;;;3.80;2.95;;;23.90;68.30;;;22.87;51.37;99849.59;12460714;23;96454;-88
2023/06/26 19:29:34;;;;;;;4.68;3.10;;;23.80;67.90;;;22.74;50.56;99836.47;12460236;23;97507;-88
2023/06/26 19:34:38;;;;;;;4.50;2.90;;;23.70;67.30;;;22.76;50.23;99858.69;12458930;23;96464;-88
2023/06/26 19:39:41;;;;;;;5.93;3.25;;;23.70;67.10;;;22.73;52.73;99853.75;12460095;23;96804;-89
2023/06/26 19:44:45;;;;;;;4.38;3.15;;;23.70;68.40;;;22.72;53.94;99863.78;12459168;23;96974;-90
2023/06/26 19:49:48;;;;;;;7.38;3.33;;;23.60;69.30;;;22.57;54.62;99864.44;12461028;23;96440;-88
2023/06/26 19:54:53;;;;;;;5.30;3.42;;;23.50;69.80;;;22.36;54.97;99857.97;12454311;23;97497;-89
2023/06/26 19:59:57;;;;;;;5.55;3.45;;;23.30;70.30;;;22.06;56.03;99857.59;12456619;23;96619;-88
2023/06/26 20:05:02;;;;;;;3.63;3.10;;;23.10;71.10;;;21.83;56.26;99862.19;12457116;23;96874;-91
2023/06/26 20:10:07;;;;;;;4.93;3.38;;;22.80;71.40;;;21.65;56.75;99873.25;12438057;23;96425;-90
2023/06/26 20:15:14;;;;;;;3.83;3.28;;;22.60;71.90;;;21.40;58.51;99864.78;12462036;23;96387;-91
2023/06/26 20:20:17;;;;;;;7.22;3.53;;;22.40;73.00;;;21.29;59.05;99863.78;12460764;23;97015;-90
2023/06/26 20:25:22;;;;;;;3.95;3.17;;;22.20;73.70;;;21.17;58.85;99853.06;12437445;23;96812;-91
2023/06/26 20:30:26;;;;;;;4.60;3.25;;;22.20;73.90;;;21.09;59.53;99859.66;12459743;23;96843;-91
2023/06/26 20:35:29;;;;;;;5.80;3.35;;;22.10;74.30;;;21.02;60.17;99863.59;12460227;23;96470;-90
2023/06/26 20:40:33;;;;;;;3.67;2.97;;;22.00;74.50;;;20.95;60.07;99863.75;12460702;23;96531;-89
2023/06/26 20:45:37;;;;;;;6.50;4.05;;;21.90;74.50;;;20.85;60.24;99850.06;12482801;23;96420;-89
2023/06/26 20:50:42;;;;;;;4.53;3.67;;;21.90;74.40;;;20.84;61.19;99856.53;12459729;23;96582;-88
2023/06/26 20:55:48;;;;;;;4.43;3.78;;;21.80;75.20;;;20.72;62.23;99858.50;12459577;23;96840;-89
2023/06/26 21:00:51;;;;;;;4.53;4.03;;;21.80;76.20;;;20.60;62.45;99863.13;12459646;23;96710;-89
2023/06/26 21:05:55;;;;;;;4.18;3.53;;;21.70;76.60;;;20.57;63.24;99861.72;12459604;23;96458;-89